sensor_id;sensor_type;location;lat;lon;timestamp;P1;durP1;ratioP1;P2;durP2;ratioP2
65572;SDS011;52214;50.940;13.996;2022-08-05T00:00:28;10.00;;;6.60;;
65572;SDS011;52214;50.940;13.996;2022-08-05T00:03:12;9.35;;;6.10;;
65572;SDS011;52214;50.940;13.996;2022-08-05T00:05:55;9.20;;;6.13;;
65572;SDS011;52214;50.940;13.996;2022-08-05T00:08:40;8.90;;;6.10;;
65572;SDS011;52214;50.940;13.996;2022-08-05T00:11:24;9.63;;;5.93;;
65572;SDS011;52214;50.940;13.996;2022-08-05T00:14:08;10.10;;;6.70;;
65572;SDS011;52214;50.940;13.996;2022-08-05T00:16:51;10.48;;;6.50;;
65572;SDS011;52214;50.940;13.996;2022-08-05T00:19:35;9.52;;;6.20;;
65572;SDS011;52214;50.940;13.996;2022-08-05T00:22:19;8.63;;;6.47;;
65572;SDS011;52214;50.940;13.996;2022-08-05T00:25:04;8.90;;;6.40;;
65572;SDS011;52214;50.940;13.996;2022-08-05T00:27:47;10.32;;;6.10;;
65572;SDS011;52214;50.940;13.996;2022-08-05T00:30:31;9.40;;;6.80;;
65572;SDS011;52214;50.940;13.996;2022-08-05T00:33:15;8.45;;;6.30;;
65572;SDS011;52214;50.940;13.996;2022-08-05T00:35:59;9.33;;;6.30;;
65572;SDS011;52214;50.940;13.996;2022-08-05T00:38:44;10.02;;;6.63;;
65572;SDS011;52214;50.940;13.996;2022-08-05T00:41:28;10.23;;;6.15;;
65572;SDS011;52214;50.940;13.996;2022-08-05T00:44:13;8.00;;;5.75;;
65572;SDS011;52214;50.940;13.996;2022-08-05T00:46:57;10.02;;;6.50;;
65572;SDS011;52214;50.940;13.996;2022-08-05T00:49:42;8.77;;;5.90;;
65572;SDS011;52214;50.940;13.996;2022-08-05T00:52:25;11.10;;;6.20;;
65572;SDS011;52214;50.940;13.996;2022-08-05T00:55:09;10.65;;;7.15;;
65572;SDS011;52214;50.940;13.996;2022-08-05T00:57:53;8.82;;;6.20;;
65572;SDS011;52214;50.940;13.996;2022-08-05T01:00:37;9.18;;;6.38;;
65572;SDS011;52214;50.940;13.996;2022-08-05T01:03:21;9.73;;;6.40;;
65572;SDS011;52214;50.940;13.996;2022-08-05T01:06:05;10.70;;;6.40;;
65572;SDS011;52214;50.940;13.996;2022-08-05T01:08:50;10.45;;;6.43;;
65572;SDS011;52214;50.940;13.996;2022-08-05T01:11:34;11.38;;;6.95;;
65572;SDS011;52214;50.940;13.996;2022-08-05T01:14:25;12.38;;;6.60;;
65572;SDS011;52214;50.940;13.996;2022-08-05T01:17:13;16.07;;;7.40;;
65572;SDS011;52214;50.940;13.996;2022-08-05T01:23:12;10.60;;;7.53;;
65572;SDS011;52214;50.940;13.996;2022-08-05T01:28:45;11.38;;;7.03;;
65572;SDS011;52214;50.940;13.996;2022-08-05T01:31:44;11.10;;;6.40;;
65572;SDS011;52214;50.940;13.996;2022-08-05T01:34:37;9.13;;;6.75;;
65572;SDS011;52214;50.940;13.996;2022-08-05T01:37:23;11.75;;;6.88;;
65572;SDS011;52214;50.940;13.996;2022-08-05T01:40:08;12.98;;;6.90;;
65572;SDS011;52214;50.940;13.996;2022-08-05T01:42:54;38.33;;;9.10;;
65572;SDS011;52214;50.940;13.996;2022-08-05T01:45:39;11.57;;;7.20;;
65572;SDS011;52214;50.940;13.996;2022-08-05T01:48:24;8.60;;;6.72;;
65572;SDS011;52214;50.940;13.996;2022-08-05T01:51:10;10.18;;;7.30;;
65572;SDS011;52214;50.940;13.996;2022-08-05T01:53:54;11.43;;;6.95;;
65572;SDS011;52214;50.940;13.996;2022-08-05T01:56:38;10.52;;;7.00;;
65572;SDS011;52214;50.940;13.996;2022-08-05T01:59:23;10.43;;;7.03;;
65572;SDS011;52214;50.940;13.996;2022-08-05T02:02:09;10.40;;;6.57;;
65572;SDS011;52214;50.940;13.996;2022-08-05T02:04:55;9.85;;;6.57;;
65572;SDS011;52214;50.940;13.996;2022-08-05T02:07:41;10.02;;;6.38;;
65572;SDS011;52214;50.940;13.996;2022-08-05T02:10:25;11.43;;;6.38;;
65572;SDS011;52214;50.940;13.996;2022-08-05T02:13:17;10.43;;;6.50;;
65572;SDS011;52214;50.940;13.996;2022-08-05T02:16:03;13.13;;;6.60;;
65572;SDS011;52214;50.940;13.996;2022-08-05T02:18:49;11.40;;;6.63;;
65572;SDS011;52214;50.940;13.996;2022-08-05T02:21:57;10.52;;;6.70;;
65572;SDS011;52214;50.940;13.996;2022-08-05T02:24:46;11.57;;;7.47;;
65572;SDS011;52214;50.940;13.996;2022-08-05T02:27:33;10.07;;;6.30;;
65572;SDS011;52214;50.940;13.996;2022-08-05T02:30:18;9.45;;;6.88;;
65572;SDS011;52214;50.940;13.996;2022-08-05T02:33:02;10.70;;;6.45;;
65572;SDS011;52214;50.940;13.996;2022-08-05T02:35:47;10.05;;;6.28;;
65572;SDS011;52214;50.940;13.996;2022-08-05T02:38:32;9.82;;;6.70;;
65572;SDS011;52214;50.940;13.996;2022-08-05T02:41:17;15.60;;;6.97;;
65572;SDS011;52214;50.940;13.996;2022-08-05T02:44:05;7.97;;;6.10;;
65572;SDS011;52214;50.940;13.996;2022-08-05T02:46:49;9.50;;;6.32;;
65572;SDS011;52214;50.940;13.996;2022-08-05T02:49:35;9.98;;;6.55;;
65572;SDS011;52214;50.940;13.996;2022-08-05T02:52:19;10.57;;;6.57;;
65572;SDS011;52214;50.940;13.996;2022-08-05T02:55:04;9.40;;;6.90;;
65572;SDS011;52214;50.940;13.996;2022-08-05T02:57:48;9.45;;;6.60;;
65572;SDS011;52214;50.940;13.996;2022-08-05T03:00:32;9.65;;;6.65;;
65572;SDS011;52214;50.940;13.996;2022-08-05T03:03:18;10.52;;;6.50;;
65572;SDS011;52214;50.940;13.996;2022-08-05T03:06:02;10.32;;;6.60;;
65572;SDS011;52214;50.940;13.996;2022-08-05T03:08:46;9.60;;;6.80;;
65572;SDS011;52214;50.940;13.996;2022-08-05T03:11:31;9.82;;;6.60;;
65572;SDS011;52214;50.940;13.996;2022-08-05T03:14:15;9.88;;;6.43;;
65572;SDS011;52214;50.940;13.996;2022-08-05T03:16:59;9.35;;;6.47;;
65572;SDS011;52214;50.940;13.996;2022-08-05T03:19:43;9.27;;;6.57;;
65572;SDS011;52214;50.940;13.996;2022-08-05T03:22:27;10.53;;;6.63;;
65572;SDS011;52214;50.940;13.996;2022-08-05T03:25:11;10.30;;;6.28;;
65572;SDS011;52214;50.940;13.996;2022-08-05T03:27:55;9.25;;;6.20;;
65572;SDS011;52214;50.940;13.996;2022-08-05T03:30:40;10.10;;;6.45;;
65572;SDS011;52214;50.940;13.996;2022-08-05T03:33:25;9.95;;;6.40;;
65572;SDS011;52214;50.940;13.996;2022-08-05T03:36:10;10.30;;;6.10;;
65572;SDS011;52214;50.940;13.996;2022-08-05T03:38:54;9.43;;;6.40;;
65572;SDS011;52214;50.940;13.996;2022-08-05T03:41:38;9.07;;;6.13;;
65572;SDS011;52214;50.940;13.996;2022-08-05T03:44:23;9.10;;;5.97;;
65572;SDS011;52214;50.940;13.996;2022-08-05T03:47:08;10.15;;;6.13;;
65572;SDS011;52214;50.940;13.996;2022-08-05T03:49:52;10.00;;;6.40;;
65572;SDS011;52214;50.940;13.996;2022-08-05T03:52:51;9.85;;;6.10;;
65572;SDS011;52214;50.940;13.996;2022-08-05T03:55:36;11.25;;;6.32;;
65572;SDS011;52214;50.940;13.996;2022-08-05T03:58:22;7.97;;;5.65;;
65572;SDS011;52214;50.940;13.996;2022-08-05T04:01:07;9.45;;;5.75;;
65572;SDS011;52214;50.940;13.996;2022-08-05T04:03:52;10.13;;;5.70;;
65572;SDS011;52214;50.940;13.996;2022-08-05T04:06:37;9.13;;;5.82;;
65572;SDS011;52214;50.940;13.996;2022-08-05T04:09:22;10.30;;;6.38;;
65572;SDS011;52214;50.940;13.996;2022-08-05T04:12:06;7.35;;;5.82;;
65572;SDS011;52214;50.940;13.996;2022-08-05T04:14:50;10.35;;;6.00;;
65572;SDS011;52214;50.940;13.996;2022-08-05T04:17:16;8.80;;;6.00;;
65572;SDS011;52214;50.940;13.996;2022-08-05T04:19:43;8.50;;;5.78;;
65572;SDS011;52214;50.940;13.996;2022-08-05T04:22:10;8.63;;;6.23;;
65572;SDS011;52214;50.940;13.996;2022-08-05T04:24:40;8.68;;;5.90;;
65572;SDS011;52214;50.940;13.996;2022-08-05T04:27:07;9.80;;;6.50;;
65572;SDS011;52214;50.940;13.996;2022-08-05T04:29:33;8.40;;;5.90;;
65572;SDS011;52214;50.940;13.996;2022-08-05T04:31:59;8.05;;;5.85;;
65572;SDS011;52214;50.940;13.996;2022-08-05T04:34:24;9.40;;;6.15;;
65572;SDS011;52214;50.940;13.996;2022-08-05T04:36:50;8.13;;;5.90;;
65572;SDS011;52214;50.940;13.996;2022-08-05T04:39:16;10.37;;;6.00;;
65572;SDS011;52214;50.940;13.996;2022-08-05T04:41:42;8.77;;;5.80;;
65572;SDS011;52214;50.940;13.996;2022-08-05T04:44:08;8.90;;;6.10;;
65572;SDS011;52214;50.940;13.996;2022-08-05T04:46:33;9.68;;;6.10;;
65572;SDS011;52214;50.940;13.996;2022-08-05T04:48:59;9.13;;;6.00;;
65572;SDS011;52214;50.940;13.996;2022-08-05T04:51:24;8.07;;;5.90;;
65572;SDS011;52214;50.940;13.996;2022-08-05T04:53:50;8.37;;;5.80;;
65572;SDS011;52214;50.940;13.996;2022-08-05T04:56:15;8.93;;;6.00;;
65572;SDS011;52214;50.940;13.996;2022-08-05T04:58:41;9.00;;;5.10;;
65572;SDS011;52214;50.940;13.996;2022-08-05T05:01:07;7.40;;;5.77;;
65572;SDS011;52214;50.940;13.996;2022-08-05T05:03:32;9.47;;;5.80;;
65572;SDS011;52214;50.940;13.996;2022-08-05T05:05:58;11.33;;;6.20;;
65572;SDS011;52214;50.940;13.996;2022-08-05T05:08:23;8.43;;;5.70;;
65572;SDS011;52214;50.940;13.996;2022-08-05T05:10:49;9.00;;;5.85;;
65572;SDS011;52214;50.940;13.996;2022-08-05T05:13:15;9.63;;;5.40;;
65572;SDS011;52214;50.940;13.996;2022-08-05T05:15:43;9.60;;;6.07;;
65572;SDS011;52214;50.940;13.996;2022-08-05T05:18:13;8.07;;;5.53;;
65572;SDS011;52214;50.940;13.996;2022-08-05T05:20:41;7.83;;;5.33;;
65572;SDS011;52214;50.940;13.996;2022-08-05T05:23:08;8.23;;;5.70;;
65572;SDS011;52214;50.940;13.996;2022-08-05T05:25:33;9.65;;;5.30;;
65572;SDS011;52214;50.940;13.996;2022-08-05T05:27:59;8.37;;;5.63;;
65572;SDS011;52214;50.940;13.996;2022-08-05T05:30:24;8.17;;;6.00;;
65572;SDS011;52214;50.940;13.996;2022-08-05T05:32:50;5.90;;;4.87;;
65572;SDS011;52214;50.940;13.996;2022-08-05T05:35:15;8.00;;;5.60;;
65572;SDS011;52214;50.940;13.996;2022-08-05T05:37:51;8.53;;;5.80;;
65572;SDS011;52214;50.940;13.996;2022-08-05T05:40:18;6.60;;;5.28;;
65572;SDS011;52214;50.940;13.996;2022-08-05T05:42:47;8.55;;;6.10;;
65572;SDS011;52214;50.940;13.996;2022-08-05T05:45:13;12.70;;;5.57;;
65572;SDS011;52214;50.940;13.996;2022-08-05T05:47:39;9.88;;;5.30;;
65572;SDS011;52214;50.940;13.996;2022-08-05T05:50:06;7.07;;;5.23;;
65572;SDS011;52214;50.940;13.996;2022-08-05T05:52:36;7.40;;;5.00;;
65572;SDS011;52214;50.940;13.996;2022-08-05T05:55:02;8.85;;;5.97;;
65572;SDS011;52214;50.940;13.996;2022-08-05T05:57:30;8.75;;;5.25;;
65572;SDS011;52214;50.940;13.996;2022-08-05T05:59:55;9.27;;;5.37;;
65572;SDS011;52214;50.940;13.996;2022-08-05T06:02:21;10.13;;;5.53;;
65572;SDS011;52214;50.940;13.996;2022-08-05T06:04:46;7.67;;;4.73;;
65572;SDS011;52214;50.940;13.996;2022-08-05T06:07:12;7.80;;;5.00;;
65572;SDS011;52214;50.940;13.996;2022-08-05T06:09:37;7.05;;;5.15;;
65572;SDS011;52214;50.940;13.996;2022-08-05T06:12:03;6.37;;;4.77;;
65572;SDS011;52214;50.940;13.996;2022-08-05T06:14:29;6.55;;;4.88;;
65572;SDS011;52214;50.940;13.996;2022-08-05T06:16:55;11.33;;;5.30;;
65572;SDS011;52214;50.940;13.996;2022-08-05T06:19:21;6.45;;;4.60;;
65572;SDS011;52214;50.940;13.996;2022-08-05T06:21:46;8.37;;;5.07;;
65572;SDS011;52214;50.940;13.996;2022-08-05T06:24:12;8.03;;;5.00;;
65572;SDS011;52214;50.940;13.996;2022-08-05T06:26:37;7.55;;;5.03;;
65572;SDS011;52214;50.940;13.996;2022-08-05T06:29:04;6.47;;;4.87;;
65572;SDS011;52214;50.940;13.996;2022-08-05T06:31:29;10.27;;;5.28;;
65572;SDS011;52214;50.940;13.996;2022-08-05T06:33:55;6.10;;;4.83;;
65572;SDS011;52214;50.940;13.996;2022-08-05T06:38:48;8.07;;;4.57;;
65572;SDS011;52214;50.940;13.996;2022-08-05T06:41:18;7.32;;;4.85;;
65572;SDS011;52214;50.940;13.996;2022-08-05T06:43:43;10.00;;;4.73;;
65572;SDS011;52214;50.940;13.996;2022-08-05T06:46:09;6.93;;;4.95;;
65572;SDS011;52214;50.940;13.996;2022-08-05T06:48:34;8.00;;;5.10;;
65572;SDS011;52214;50.940;13.996;2022-08-05T06:51:00;7.63;;;4.67;;
65572;SDS011;52214;50.940;13.996;2022-08-05T06:53:25;7.90;;;4.77;;
65572;SDS011;52214;50.940;13.996;2022-08-05T06:55:51;7.50;;;5.10;;
65572;SDS011;52214;50.940;13.996;2022-08-05T06:58:16;10.27;;;4.70;;
65572;SDS011;52214;50.940;13.996;2022-08-05T07:00:42;7.40;;;4.23;;
65572;SDS011;52214;50.940;13.996;2022-08-05T07:03:07;7.47;;;4.40;;
65572;SDS011;52214;50.940;13.996;2022-08-05T07:05:33;6.40;;;4.33;;
65572;SDS011;52214;50.940;13.996;2022-08-05T07:07:58;5.90;;;4.40;;
65572;SDS011;52214;50.940;13.996;2022-08-05T07:10:24;9.10;;;4.80;;
65572;SDS011;52214;50.940;13.996;2022-08-05T07:12:49;6.33;;;4.23;;
65572;SDS011;52214;50.940;13.996;2022-08-05T07:15:33;8.35;;;4.40;;
65572;SDS011;52214;50.940;13.996;2022-08-05T07:18:17;8.30;;;4.65;;
65572;SDS011;52214;50.940;13.996;2022-08-05T07:20:43;6.13;;;4.50;;
65572;SDS011;52214;50.940;13.996;2022-08-05T07:23:08;7.50;;;4.60;;
65572;SDS011;52214;50.940;13.996;2022-08-05T07:25:34;6.43;;;4.57;;
65572;SDS011;52214;50.940;13.996;2022-08-05T07:27:59;7.90;;;4.70;;
65572;SDS011;52214;50.940;13.996;2022-08-05T07:30:24;8.43;;;4.67;;
65572;SDS011;52214;50.940;13.996;2022-08-05T07:32:50;8.67;;;4.33;;
65572;SDS011;52214;50.940;13.996;2022-08-05T07:35:15;11.63;;;4.93;;
65572;SDS011;52214;50.940;13.996;2022-08-05T07:37:41;8.00;;;4.93;;
65572;SDS011;52214;50.940;13.996;2022-08-05T07:40:07;9.00;;;4.83;;
65572;SDS011;52214;50.940;13.996;2022-08-05T07:42:33;8.43;;;4.95;;
65572;SDS011;52214;50.940;13.996;2022-08-05T07:44:59;10.00;;;5.07;;
65572;SDS011;52214;50.940;13.996;2022-08-05T07:47:24;8.77;;;4.80;;
65572;SDS011;52214;50.940;13.996;2022-08-05T07:49:50;7.93;;;4.23;;
65572;SDS011;52214;50.940;13.996;2022-08-05T07:52:17;7.63;;;4.32;;
65572;SDS011;52214;50.940;13.996;2022-08-05T07:54:45;7.50;;;4.40;;
65572;SDS011;52214;50.940;13.996;2022-08-05T07:57:11;7.97;;;4.53;;
65572;SDS011;52214;50.940;13.996;2022-08-05T07:59:37;8.32;;;4.35;;
65572;SDS011;52214;50.940;13.996;2022-08-05T08:02:02;7.07;;;4.50;;
65572;SDS011;52214;50.940;13.996;2022-08-05T08:04:28;6.68;;;4.45;;
65572;SDS011;52214;50.940;13.996;2022-08-05T08:06:54;6.83;;;4.60;;
65572;SDS011;52214;50.940;13.996;2022-08-05T08:09:19;7.10;;;4.80;;
65572;SDS011;52214;50.940;13.996;2022-08-05T08:11:45;7.78;;;4.53;;
65572;SDS011;52214;50.940;13.996;2022-08-05T08:14:11;6.75;;;4.30;;
65572;SDS011;52214;50.940;13.996;2022-08-05T08:16:37;7.93;;;4.20;;
65572;SDS011;52214;50.940;13.996;2022-08-05T08:19:02;10.07;;;4.00;;
65572;SDS011;52214;50.940;13.996;2022-08-05T08:21:28;7.30;;;4.57;;
65572;SDS011;52214;50.940;13.996;2022-08-05T08:23:53;10.33;;;4.30;;
65572;SDS011;52214;50.940;13.996;2022-08-05T08:26:19;10.97;;;4.67;;
65572;SDS011;52214;50.940;13.996;2022-08-05T08:28:45;9.50;;;4.65;;
65572;SDS011;52214;50.940;13.996;2022-08-05T08:31:11;9.77;;;4.70;;
65572;SDS011;52214;50.940;13.996;2022-08-05T08:33:36;7.07;;;4.70;;
65572;SDS011;52214;50.940;13.996;2022-08-05T08:36:02;9.77;;;5.00;;
65572;SDS011;52214;50.940;13.996;2022-08-05T08:38:27;11.68;;;5.20;;
65572;SDS011;52214;50.940;13.996;2022-08-05T08:40:55;13.17;;;4.70;;
65572;SDS011;52214;50.940;13.996;2022-08-05T08:43:21;7.35;;;4.70;;
65572;SDS011;52214;50.940;13.996;2022-08-05T08:45:48;7.60;;;4.55;;
65572;SDS011;52214;50.940;13.996;2022-08-05T08:48:15;8.10;;;4.75;;
65572;SDS011;52214;50.940;13.996;2022-08-05T08:50:44;11.13;;;5.10;;
65572;SDS011;52214;50.940;13.996;2022-08-05T08:53:12;10.13;;;4.70;;
65572;SDS011;52214;50.940;13.996;2022-08-05T08:55:40;5.80;;;4.63;;
65572;SDS011;52214;50.940;13.996;2022-08-05T08:58:05;9.00;;;5.30;;
65572;SDS011;52214;50.940;13.996;2022-08-05T09:00:31;10.57;;;4.65;;
65572;SDS011;52214;50.940;13.996;2022-08-05T09:02:57;11.85;;;5.18;;
65572;SDS011;52214;50.940;13.996;2022-08-05T09:05:23;8.90;;;5.03;;
65572;SDS011;52214;50.940;13.996;2022-08-05T09:07:50;8.50;;;4.60;;
65572;SDS011;52214;50.940;13.996;2022-08-05T09:10:16;11.65;;;4.95;;
65572;SDS011;52214;50.940;13.996;2022-08-05T09:12:42;9.05;;;5.18;;
65572;SDS011;52214;50.940;13.996;2022-08-05T09:15:08;8.93;;;4.87;;
65572;SDS011;52214;50.940;13.996;2022-08-05T09:17:34;10.05;;;4.70;;
65572;SDS011;52214;50.940;13.996;2022-08-05T09:20:00;9.90;;;4.70;;
65572;SDS011;52214;50.940;13.996;2022-08-05T09:22:26;8.05;;;4.90;;
65572;SDS011;52214;50.940;13.996;2022-08-05T09:25:02;8.52;;;4.70;;
65572;SDS011;52214;50.940;13.996;2022-08-05T09:27:32;9.17;;;4.97;;
65572;SDS011;52214;50.940;13.996;2022-08-05T09:30:04;10.25;;;5.00;;
65572;SDS011;52214;50.940;13.996;2022-08-05T09:32:35;8.55;;;4.88;;
65572;SDS011;52214;50.940;13.996;2022-08-05T09:35:12;7.75;;;4.82;;
65572;SDS011;52214;50.940;13.996;2022-08-05T09:37:49;7.78;;;4.47;;
65572;SDS011;52214;50.940;13.996;2022-08-05T09:40:35;6.40;;;4.87;;
65572;SDS011;52214;50.940;13.996;2022-08-05T09:43:05;6.72;;;4.70;;
65572;SDS011;52214;50.940;13.996;2022-08-05T09:45:40;7.32;;;5.03;;
65572;SDS011;52214;50.940;13.996;2022-08-05T09:48:23;9.25;;;4.88;;
65572;SDS011;52214;50.940;13.996;2022-08-05T09:50:54;11.40;;;5.05;;
65572;SDS011;52214;50.940;13.996;2022-08-05T09:53:22;5.87;;;4.60;;
65572;SDS011;52214;50.940;13.996;2022-08-05T09:55:52;10.50;;;4.57;;
65572;SDS011;52214;50.940;13.996;2022-08-05T09:58:19;7.53;;;4.40;;
65572;SDS011;52214;50.940;13.996;2022-08-05T10:00:52;6.10;;;4.50;;
65572;SDS011;52214;50.940;13.996;2022-08-05T10:03:17;10.17;;;4.77;;
65572;SDS011;52214;50.940;13.996;2022-08-05T10:05:43;9.70;;;5.07;;
65572;SDS011;52214;50.940;13.996;2022-08-05T10:08:09;8.43;;;4.90;;
65572;SDS011;52214;50.940;13.996;2022-08-05T10:10:35;8.55;;;5.10;;
65572;SDS011;52214;50.940;13.996;2022-08-05T10:13:03;10.43;;;4.47;;
65572;SDS011;52214;50.940;13.996;2022-08-05T10:15:31;10.40;;;4.37;;
65572;SDS011;52214;50.940;13.996;2022-08-05T10:20:29;7.88;;;4.13;;
65572;SDS011;52214;50.940;13.996;2022-08-05T10:22:56;6.95;;;4.30;;
65572;SDS011;52214;50.940;13.996;2022-08-05T10:25:22;5.85;;;3.88;;
65572;SDS011;52214;50.940;13.996;2022-08-05T10:27:47;6.53;;;4.57;;
65572;SDS011;52214;50.940;13.996;2022-08-05T10:30:14;5.35;;;4.22;;
65572;SDS011;52214;50.940;13.996;2022-08-05T10:32:39;8.10;;;4.97;;
65572;SDS011;52214;50.940;13.996;2022-08-05T10:35:05;9.43;;;4.30;;
65572;SDS011;52214;50.940;13.996;2022-08-05T10:37:31;8.38;;;4.30;;
65572;SDS011;52214;50.940;13.996;2022-08-05T10:39:57;8.52;;;4.15;;
65572;SDS011;52214;50.940;13.996;2022-08-05T10:42:28;7.40;;;4.37;;
65572;SDS011;52214;50.940;13.996;2022-08-05T10:45:04;6.90;;;4.13;;
65572;SDS011;52214;50.940;13.996;2022-08-05T10:47:31;8.63;;;4.20;;
65572;SDS011;52214;50.940;13.996;2022-08-05T10:49:59;8.55;;;4.35;;
65572;SDS011;52214;50.940;13.996;2022-08-05T10:52:40;8.25;;;4.15;;
65572;SDS011;52214;50.940;13.996;2022-08-05T10:55:09;7.40;;;4.40;;
65572;SDS011;52214;50.940;13.996;2022-08-05T10:57:36;8.00;;;4.40;;
65572;SDS011;52214;50.940;13.996;2022-08-05T11:00:07;5.75;;;4.10;;
65572;SDS011;52214;50.940;13.996;2022-08-05T11:02:33;8.00;;;4.35;;
65572;SDS011;52214;50.940;13.996;2022-08-05T11:05:01;7.00;;;4.50;;
65572;SDS011;52214;50.940;13.996;2022-08-05T11:07:29;7.28;;;4.20;;
65572;SDS011;52214;50.940;13.996;2022-08-05T11:09:55;11.38;;;5.22;;
65572;SDS011;52214;50.940;13.996;2022-08-05T11:15:07;8.50;;;4.80;;
65572;SDS011;52214;50.940;13.996;2022-08-05T11:17:40;6.95;;;4.40;;
65572;SDS011;52214;50.940;13.996;2022-08-05T11:20:07;6.82;;;4.28;;
65572;SDS011;52214;50.940;13.996;2022-08-05T11:22:58;7.18;;;4.30;;
65572;SDS011;52214;50.940;13.996;2022-08-05T11:27:58;9.07;;;4.63;;
65572;SDS011;52214;50.940;13.996;2022-08-05T11:33:31;5.68;;;4.32;;
65572;SDS011;52214;50.940;13.996;2022-08-05T11:36:01;9.43;;;4.28;;
65572;SDS011;52214;50.940;13.996;2022-08-05T11:41:05;6.73;;;4.40;;
65572;SDS011;52214;50.940;13.996;2022-08-05T11:46:30;6.10;;;4.32;;
65572;SDS011;52214;50.940;13.996;2022-08-05T11:48:56;9.23;;;4.50;;
65572;SDS011;52214;50.940;13.996;2022-08-05T11:51:23;7.30;;;4.60;;
65572;SDS011;52214;50.940;13.996;2022-08-05T11:53:51;7.23;;;4.80;;
65572;SDS011;52214;50.940;13.996;2022-08-05T11:56:18;6.70;;;4.68;;
65572;SDS011;52214;50.940;13.996;2022-08-05T11:58:44;8.30;;;4.50;;
65572;SDS011;52214;50.940;13.996;2022-08-05T12:01:11;10.38;;;4.57;;
65572;SDS011;52214;50.940;13.996;2022-08-05T12:03:48;5.20;;;4.40;;
65572;SDS011;52214;50.940;13.996;2022-08-05T12:06:20;7.82;;;4.88;;
65572;SDS011;52214;50.940;13.996;2022-08-05T12:08:51;11.93;;;4.50;;
65572;SDS011;52214;50.940;13.996;2022-08-05T12:11:18;9.90;;;4.40;;
65572;SDS011;52214;50.940;13.996;2022-08-05T12:14:05;9.52;;;4.20;;
65572;SDS011;52214;50.940;13.996;2022-08-05T12:16:33;6.30;;;4.27;;
65572;SDS011;52214;50.940;13.996;2022-08-05T12:19:00;6.18;;;4.38;;
65572;SDS011;52214;50.940;13.996;2022-08-05T12:21:27;7.88;;;4.35;;
65572;SDS011;52214;50.940;13.996;2022-08-05T12:26:24;7.90;;;4.20;;
65572;SDS011;52214;50.940;13.996;2022-08-05T12:28:55;8.20;;;4.67;;
65572;SDS011;52214;50.940;13.996;2022-08-05T12:31:20;7.15;;;4.40;;
65572;SDS011;52214;50.940;13.996;2022-08-05T12:33:46;6.93;;;4.10;;
65572;SDS011;52214;50.940;13.996;2022-08-05T12:36:12;6.18;;;4.22;;
65572;SDS011;52214;50.940;13.996;2022-08-05T12:38:39;6.78;;;4.15;;
65572;SDS011;52214;50.940;13.996;2022-08-05T12:41:09;5.00;;;3.93;;
65572;SDS011;52214;50.940;13.996;2022-08-05T12:46:22;7.85;;;4.20;;
65572;SDS011;52214;50.940;13.996;2022-08-05T12:49:00;9.98;;;4.15;;
65572;SDS011;52214;50.940;13.996;2022-08-05T12:51:30;5.40;;;3.42;;
65572;SDS011;52214;50.940;13.996;2022-08-05T12:53:57;5.50;;;3.53;;
65572;SDS011;52214;50.940;13.996;2022-08-05T12:56:24;6.65;;;3.80;;
65572;SDS011;52214;50.940;13.996;2022-08-05T13:01:39;6.00;;;4.10;;
65572;SDS011;52214;50.940;13.996;2022-08-05T13:04:06;5.47;;;3.70;;
65572;SDS011;52214;50.940;13.996;2022-08-05T13:06:37;5.55;;;3.58;;
65572;SDS011;52214;50.940;13.996;2022-08-05T13:09:10;6.47;;;3.47;;
65572;SDS011;52214;50.940;13.996;2022-08-05T13:11:39;5.40;;;3.42;;
65572;SDS011;52214;50.940;13.996;2022-08-05T13:14:09;7.67;;;3.70;;
65572;SDS011;52214;50.940;13.996;2022-08-05T13:16:46;5.97;;;3.40;;
65572;SDS011;52214;50.940;13.996;2022-08-05T13:19:23;6.80;;;3.80;;
65572;SDS011;52214;50.940;13.996;2022-08-05T13:21:50;7.68;;;3.60;;
65572;SDS011;52214;50.940;13.996;2022-08-05T13:24:17;5.15;;;3.60;;
65572;SDS011;52214;50.940;13.996;2022-08-05T13:26:44;5.83;;;3.73;;
65572;SDS011;52214;50.940;13.996;2022-08-05T13:29:11;6.40;;;4.00;;
65572;SDS011;52214;50.940;13.996;2022-08-05T13:31:36;5.53;;;3.50;;
65572;SDS011;52214;50.940;13.996;2022-08-05T13:34:02;7.43;;;3.30;;
65572;SDS011;52214;50.940;13.996;2022-08-05T13:36:27;5.32;;;3.40;;
65572;SDS011;52214;50.940;13.996;2022-08-05T13:38:53;9.47;;;3.73;;
65572;SDS011;52214;50.940;13.996;2022-08-05T13:41:18;6.83;;;3.67;;
65572;SDS011;52214;50.940;13.996;2022-08-05T13:43:44;4.60;;;3.53;;
65572;SDS011;52214;50.940;13.996;2022-08-05T13:46:10;5.73;;;3.30;;
65572;SDS011;52214;50.940;13.996;2022-08-05T13:48:36;6.55;;;3.78;;
65572;SDS011;52214;50.940;13.996;2022-08-05T13:51:09;5.87;;;3.70;;
65572;SDS011;52214;50.940;13.996;2022-08-05T13:53:37;5.30;;;3.58;;
65572;SDS011;52214;50.940;13.996;2022-08-05T13:56:03;6.18;;;3.58;;
65572;SDS011;52214;50.940;13.996;2022-08-05T13:58:28;6.20;;;3.70;;
65572;SDS011;52214;50.940;13.996;2022-08-05T14:00:54;5.63;;;3.72;;
65572;SDS011;52214;50.940;13.996;2022-08-05T14:03:20;8.10;;;3.37;;
65572;SDS011;52214;50.940;13.996;2022-08-05T14:05:46;8.27;;;3.50;;
65572;SDS011;52214;50.940;13.996;2022-08-05T14:08:12;6.83;;;3.60;;
65572;SDS011;52214;50.940;13.996;2022-08-05T14:10:38;7.07;;;3.80;;
65572;SDS011;52214;50.940;13.996;2022-08-05T14:13:06;5.07;;;3.73;;
65572;SDS011;52214;50.940;13.996;2022-08-05T14:15:32;5.22;;;3.33;;
65572;SDS011;52214;50.940;13.996;2022-08-05T14:17:58;5.05;;;3.40;;
65572;SDS011;52214;50.940;13.996;2022-08-05T14:20:24;7.50;;;3.72;;
65572;SDS011;52214;50.940;13.996;2022-08-05T14:22:50;7.10;;;3.87;;
65572;SDS011;52214;50.940;13.996;2022-08-05T14:25:19;7.53;;;3.60;;
65572;SDS011;52214;50.940;13.996;2022-08-05T14:27:46;6.35;;;3.90;;
65572;SDS011;52214;50.940;13.996;2022-08-05T14:30:13;5.68;;;3.33;;
65572;SDS011;52214;50.940;13.996;2022-08-05T14:32:39;6.43;;;3.73;;
65572;SDS011;52214;50.940;13.996;2022-08-05T14:35:05;6.88;;;3.60;;
65572;SDS011;52214;50.940;13.996;2022-08-05T14:37:31;5.28;;;3.38;;
65572;SDS011;52214;50.940;13.996;2022-08-05T14:39:57;7.45;;;3.40;;
65572;SDS011;52214;50.940;13.996;2022-08-05T14:42:23;5.20;;;4.07;;
65572;SDS011;52214;50.940;13.996;2022-08-05T14:44:48;6.40;;;3.40;;
65572;SDS011;52214;50.940;13.996;2022-08-05T14:47:14;6.72;;;3.40;;
65572;SDS011;52214;50.940;13.996;2022-08-05T14:49:40;6.17;;;3.53;;
65572;SDS011;52214;50.940;13.996;2022-08-05T14:52:05;5.17;;;3.90;;
65572;SDS011;52214;50.940;13.996;2022-08-05T14:54:31;5.95;;;3.22;;
65572;SDS011;52214;50.940;13.996;2022-08-05T14:56:57;4.90;;;2.97;;
65572;SDS011;52214;50.940;13.996;2022-08-05T14:59:23;5.18;;;3.30;;
65572;SDS011;52214;50.940;13.996;2022-08-05T15:01:49;5.75;;;3.13;;
65572;SDS011;52214;50.940;13.996;2022-08-05T15:04:18;6.57;;;3.40;;
65572;SDS011;52214;50.940;13.996;2022-08-05T15:06:44;9.30;;;3.70;;
65572;SDS011;52214;50.940;13.996;2022-08-05T15:09:09;9.00;;;3.63;;
65572;SDS011;52214;50.940;13.996;2022-08-05T15:11:34;5.17;;;3.33;;
65572;SDS011;52214;50.940;13.996;2022-08-05T15:14:01;4.53;;;3.40;;
65572;SDS011;52214;50.940;13.996;2022-08-05T15:16:26;7.10;;;3.35;;
65572;SDS011;52214;50.940;13.996;2022-08-05T15:18:52;7.17;;;3.30;;
65572;SDS011;52214;50.940;13.996;2022-08-05T15:21:18;5.87;;;3.23;;
65572;SDS011;52214;50.940;13.996;2022-08-05T15:23:43;6.57;;;3.33;;
65572;SDS011;52214;50.940;13.996;2022-08-05T15:26:09;4.85;;;3.30;;
65572;SDS011;52214;50.940;13.996;2022-08-05T15:28:34;4.77;;;3.30;;
65572;SDS011;52214;50.940;13.996;2022-08-05T15:31:00;5.87;;;3.20;;